sensor_id;sensor_type;location;lat;lon;timestamp;pressure;altitude;pressure_sealevel;temperature;humidity
12868;BME280;33517;49.866;8.320;2022-08-19T00:01:53;100070.50;;;22.15;65.95
12868;BME280;33517;49.866;8.320;2022-08-19T00:04:47;100067.81;;;22.15;65.89
12868;BME280;33517;49.866;8.320;2022-08-19T00:07:43;100070.75;;;22.13;66.16
12868;BME280;33517;49.866;8.320;2022-08-19T00:10:35;100067.25;;;22.13;66.36
12868;BME280;33517;49.866;8.320;2022-08-19T00:13:27;100071.81;;;22.12;66.25
12868;BME280;33517;49.866;8.320;2022-08-19T00:16:20;100059.78;;;22.15;66.60
12868;BME280;33517;49.866;8.320;2022-08-19T00:19:12;100062.75;;;22.18;66.45
12868;BME280;33517;49.866;8.320;2022-08-19T00:22:05;100064.41;;;22.19;66.39
12868;BME280;33517;49.866;8.320;2022-08-19T00:24:59;100059.88;;;22.20;66.85
12868;BME280;33517;49.866;8.320;2022-08-19T00:27:51;100059.03;;;22.19;66.66
12868;BME280;33517;49.866;8.320;2022-08-19T00:30:42;100058.88;;;22.26;66.47
12868;BME280;33517;49.866;8.320;2022-08-19T00:33:34;100054.03;;;22.28;66.54
12868;BME280;33517;49.866;8.320;2022-08-19T00:36:27;100053.56;;;22.31;66.56
12868;BME280;33517;49.866;8.320;2022-08-19T00:39:21;100056.81;;;22.33;66.51
12868;BME280;33517;49.866;8.320;2022-08-19T00:42:12;100051.75;;;22.36;66.45
12868;BME280;33517;49.866;8.320;2022-08-19T00:45:10;100055.72;;;22.34;66.60
12868;BME280;33517;49.866;8.320;2022-08-19T00:48:03;100046.91;;;22.33;66.38
12868;BME280;33517;49.866;8.320;2022-08-19T00:50:55;100039.63;;;22.34;66.54
12868;BME280;33517;49.866;8.320;2022-08-19T00:53:47;100031.59;;;22.34;66.54
12868;BME280;33517;49.866;8.320;2022-08-19T00:56:41;100031.59;;;22.34;66.59
12868;BME280;33517;49.866;8.320;2022-08-19T00:59:34;100014.94;;;22.32;66.08
12868;BME280;33517;49.866;8.320;2022-08-19T01:02:29;100012.53;;;22.30;66.69
12868;BME280;33517;49.866;8.320;2022-08-19T01:05:25;100002.38;;;22.32;66.33
12868;BME280;33517;49.866;8.320;2022-08-19T01:08:19;100005.47;;;22.24;67.16
12868;BME280;33517;49.866;8.320;2022-08-19T01:11:11;100006.56;;;22.23;67.02
12868;BME280;33517;49.866;8.320;2022-08-19T01:14:05;100010.53;;;22.21;67.25
12868;BME280;33517;49.866;8.320;2022-08-19T01:16:57;100019.44;;;22.26;66.66
12868;BME280;33517;49.866;8.320;2022-08-19T01:19:51;100007.69;;;22.27;66.50
12868;BME280;33517;49.866;8.320;2022-08-19T01:22:47;100013.78;;;22.23;66.90
12868;BME280;33517;49.866;8.320;2022-08-19T01:25:42;100012.66;;;22.19;66.96
12868;BME280;33517;49.866;8.320;2022-08-19T01:28:36;100013.72;;;22.18;67.10
12868;BME280;33517;49.866;8.320;2022-08-19T01:31:28;100003.06;;;22.23;66.80
12868;BME280;33517;49.866;8.320;2022-08-19T01:34:21;100011.66;;;22.25;66.61
12868;BME280;33517;49.866;8.320;2022-08-19T01:37:14;100014.03;;;22.21;66.77
12868;BME280;33517;49.866;8.320;2022-08-19T01:40:10;100025.31;;;22.23;66.78
12868;BME280;33517;49.866;8.320;2022-08-19T01:43:03;100029.13;;;22.27;66.58
12868;BME280;33517;49.866;8.320;2022-08-19T01:45:56;100025.44;;;22.33;66.30
12868;BME280;33517;49.866;8.320;2022-08-19T01:48:48;100010.16;;;22.34;66.46
12868;BME280;33517;49.866;8.320;2022-08-19T01:51:40;100006.13;;;22.31;66.43
12868;BME280;33517;49.866;8.320;2022-08-19T01:54:32;100017.41;;;22.33;66.45
12868;BME280;33517;49.866;8.320;2022-08-19T01:57:26;100027.50;;;22.26;66.54
12868;BME280;33517;49.866;8.320;2022-08-19T02:00:21;100032.41;;;22.34;66.62
12868;BME280;33517;49.866;8.320;2022-08-19T02:03:14;100034.91;;;22.41;65.98
12868;BME280;33517;49.866;8.320;2022-08-19T02:06:06;100026.34;;;22.44;66.07
12868;BME280;33517;49.866;8.320;2022-08-19T02:08:58;100021.56;;;22.46;65.90
12868;BME280;33517;49.866;8.320;2022-08-19T02:11:50;100017.81;;;22.47;65.90
12868;BME280;33517;49.866;8.320;2022-08-19T02:14:44;100022.38;;;22.46;65.86
12868;BME280;33517;49.866;8.320;2022-08-19T02:17:35;100027.34;;;22.38;66.26
12868;BME280;33517;49.866;8.320;2022-08-19T02:20:28;100023.88;;;22.37;66.06
12868;BME280;33517;49.866;8.320;2022-08-19T02:23:19;100027.66;;;22.41;66.00
12868;BME280;33517;49.866;8.320;2022-08-19T02:26:12;100033.28;;;22.40;65.99
12868;BME280;33517;49.866;8.320;2022-08-19T02:29:04;100032.66;;;22.33;66.38
12868;BME280;33517;49.866;8.320;2022-08-19T02:31:57;100039.28;;;22.25;66.91
12868;BME280;33517;49.866;8.320;2022-08-19T02:34:49;100031.72;;;22.22;66.77
12868;BME280;33517;49.866;8.320;2022-08-19T02:37:43;100040.34;;;22.24;66.67
12868;BME280;33517;49.866;8.320;2022-08-19T02:40:55;100036.03;;;22.23;66.97
12868;BME280;33517;49.866;8.320;2022-08-19T02:43:48;100037.59;;;22.19;67.23
12868;BME280;33517;49.866;8.320;2022-08-19T02:46:40;100040.78;;;22.16;67.60
12868;BME280;33517;49.866;8.320;2022-08-19T02:49:33;100041.66;;;22.22;67.12
12868;BME280;33517;49.866;8.320;2022-08-19T02:52:25;100049.94;;;22.20;67.19
12868;BME280;33517;49.866;8.320;2022-08-19T02:55:18;100051.75;;;22.15;67.56
12868;BME280;33517;49.866;8.320;2022-08-19T02:58:12;100047.75;;;22.17;67.57
12868;BME280;33517;49.866;8.320;2022-08-19T03:01:04;100041.84;;;22.15;67.66
12868;BME280;33517;49.866;8.320;2022-08-19T03:03:57;100040.03;;;22.21;67.33
12868;BME280;33517;49.866;8.320;2022-08-19T03:06:51;100040.44;;;22.13;67.72
12868;BME280;33517;49.866;8.320;2022-08-19T03:09:44;100050.38;;;22.12;68.02
12868;BME280;33517;49.866;8.320;2022-08-19T03:12:39;100050.69;;;22.16;67.54
12868;BME280;33517;49.866;8.320;2022-08-19T03:15:31;100047.63;;;22.07;68.07
12868;BME280;33517;49.866;8.320;2022-08-19T03:18:23;100047.88;;;22.06;67.95
12868;BME280;33517;49.866;8.320;2022-08-19T03:21:15;100040.44;;;22.13;67.74
12868;BME280;33517;49.866;8.320;2022-08-19T03:24:09;100046.69;;;22.18;67.47
12868;BME280;33517;49.866;8.320;2022-08-19T03:27:01;100045.13;;;22.22;67.04
12868;BME280;33517;49.866;8.320;2022-08-19T03:29:55;100049.13;;;22.20;67.12
12868;BME280;33517;49.866;8.320;2022-08-19T03:32:47;100040.28;;;22.19;67.01
12868;BME280;33517;49.866;8.320;2022-08-19T03:35:39;100046.63;;;22.13;66.99
12868;BME280;33517;49.866;8.320;2022-08-19T03:38:31;100037.47;;;22.09;67.11
12868;BME280;33517;49.866;8.320;2022-08-19T03:41:26;100040.66;;;22.06;67.54
12868;BME280;33517;49.866;8.320;2022-08-19T03:44:20;100042.47;;;22.01;67.49
12868;BME280;33517;49.866;8.320;2022-08-19T03:47:13;100049.25;;;22.08;67.31
12868;BME280;33517;49.866;8.320;2022-08-19T03:50:07;100058.09;;;22.09;67.42
12868;BME280;33517;49.866;8.320;2022-08-19T03:52:59;100055.50;;;22.14;67.24
12868;BME280;33517;49.866;8.320;2022-08-19T03:55:51;100059.56;;;22.16;67.01
12868;BME280;33517;49.866;8.320;2022-08-19T03:58:45;100055.50;;;22.14;67.33
12868;BME280;33517;49.866;8.320;2022-08-19T04:01:37;100056.22;;;22.09;67.35
12868;BME280;33517;49.866;8.320;2022-08-19T04:04:28;100061.53;;;22.04;67.54
12868;BME280;33517;49.866;8.320;2022-08-19T04:07:21;100068.69;;;21.98;67.92
12868;BME280;33517;49.866;8.320;2022-08-19T04:10:13;100067.63;;;21.99;67.83
12868;BME280;33517;49.866;8.320;2022-08-19T04:13:05;100066.63;;;22.06;67.36
12868;BME280;33517;49.866;8.320;2022-08-19T04:15:59;100073.53;;;22.02;68.03
12868;BME280;33517;49.866;8.320;2022-08-19T04:18:51;100073.41;;;21.91;67.97
12868;BME280;33517;49.866;8.320;2022-08-19T04:21:44;100073.25;;;21.98;68.01
12868;BME280;33517;49.866;8.320;2022-08-19T04:24:37;100072.50;;;22.03;67.61
12868;BME280;33517;49.866;8.320;2022-08-19T04:27:29;100072.94;;;21.94;67.72
12868;BME280;33517;49.866;8.320;2022-08-19T04:30:21;100077.72;;;21.92;67.42
12868;BME280;33517;49.866;8.320;2022-08-19T04:33:17;100070.41;;;21.88;68.10
12868;BME280;33517;49.866;8.320;2022-08-19T04:36:16;100057.94;;;21.60;69.19
12868;BME280;33517;49.866;8.320;2022-08-19T04:39:11;100060.53;;;21.55;69.31
12868;BME280;33517;49.866;8.320;2022-08-19T04:42:03;100067.91;;;21.48;69.75
12868;BME280;33517;49.866;8.320;2022-08-19T04:45:14;100058.75;;;21.44;69.82
12868;BME280;33517;49.866;8.320;2022-08-19T04:48:06;100067.28;;;21.41;70.15
12868;BME280;33517;49.866;8.320;2022-08-19T04:50:59;100062.91;;;21.35;70.27
12868;BME280;33517;49.866;8.320;2022-08-19T04:53:51;100075.38;;;21.30;70.27
12868;BME280;33517;49.866;8.320;2022-08-19T04:56:43;100079.44;;;21.32;70.21
12868;BME280;33517;49.866;8.320;2022-08-19T04:59:36;100078.47;;;21.38;70.15
12868;BME280;33517;49.866;8.320;2022-08-19T05:02:29;100077.88;;;21.36;70.52
12868;BME280;33517;49.866;8.320;2022-08-19T05:05:21;100077.16;;;21.41;70.90
12868;BME280;33517;49.866;8.320;2022-08-19T05:08:16;100062.81;;;21.47;70.21
12868;BME280;33517;49.866;8.320;2022-08-19T05:11:12;100074.41;;;21.52;70.43
12868;BME280;33517;49.866;8.320;2022-08-19T05:14:04;100087.41;;;21.60;70.27
12868;BME280;33517;49.866;8.320;2022-08-19T05:16:56;100088.75;;;21.79;69.53
12868;BME280;33517;49.866;8.320;2022-08-19T05:19:48;100084.88;;;21.87;69.48
12868;BME280;33517;49.866;8.320;2022-08-19T05:22:58;100085.34;;;22.01;69.10
12868;BME280;33517;49.866;8.320;2022-08-19T05:25:51;100092.19;;;22.13;68.91
12868;BME280;33517;49.866;8.320;2022-08-19T05:28:43;100087.03;;;22.28;68.58
12868;BME280;33517;49.866;8.320;2022-08-19T05:31:36;100089.72;;;22.50;67.89
12868;BME280;33517;49.866;8.320;2022-08-19T05:34:29;100090.09;;;22.58;67.47
12868;BME280;33517;49.866;8.320;2022-08-19T05:37:22;100098.63;;;22.55;67.56
12868;BME280;33517;49.866;8.320;2022-08-19T05:40:17;100100.91;;;22.63;67.11
12868;BME280;33517;49.866;8.320;2022-08-19T05:43:10;100096.72;;;22.72;67.25
12868;BME280;33517;49.866;8.320;2022-08-19T05:46:02;100100.69;;;22.92;66.76
12868;BME280;33517;49.866;8.320;2022-08-19T05:48:55;100091.00;;;23.17;65.96
12868;BME280;33517;49.866;8.320;2022-08-19T05:51:48;100090.81;;;23.55;64.62
12868;BME280;33517;49.866;8.320;2022-08-19T05:54:40;100099.38;;;23.26;65.33
12868;BME280;33517;49.866;8.320;2022-08-19T05:57:33;100110.34;;;23.19;65.72
12868;BME280;33517;49.866;8.320;2022-08-19T06:00:26;100107.75;;;23.29;65.20
12868;BME280;33517;49.866;8.320;2022-08-19T06:03:18;100116.28;;;23.21;65.32
12868;BME280;33517;49.866;8.320;2022-08-19T06:06:12;100112.38;;;23.34;65.38
12868;BME280;33517;49.866;8.320;2022-08-19T06:09:05;100115.00;;;23.29;65.23
12868;BME280;33517;49.866;8.320;2022-08-19T06:11:58;100129.81;;;23.31;65.29
12868;BME280;33517;49.866;8.320;2022-08-19T06:14:53;100135.56;;;23.45;65.13
12868;BME280;33517;49.866;8.320;2022-08-19T06:17:46;100149.91;;;23.29;65.61
12868;BME280;33517;49.866;8.320;2022-08-19T06:20:38;100155.28;;;23.55;65.28
12868;BME280;33517;49.866;8.320;2022-08-19T06:23:30;100156.09;;;23.88;64.40
12868;BME280;33517;49.866;8.320;2022-08-19T06:26:22;100154.59;;;24.02;63.82
12868;BME280;33517;49.866;8.320;2022-08-19T06:29:17;100156.56;;;24.11;63.60
12868;BME280;33517;49.866;8.320;2022-08-19T06:32:09;100158.91;;;24.08;62.96
12868;BME280;33517;49.866;8.320;2022-08-19T06:35:03;100169.06;;;24.94;61.38
12868;BME280;33517;49.866;8.320;2022-08-19T06:37:56;100182.41;;;25.46;60.02
12868;BME280;33517;49.866;8.320;2022-08-19T06:40:48;100169.69;;;25.16;59.72
12868;BME280;33517;49.866;8.320;2022-08-19T06:43:40;100183.50;;;25.65;58.49
12868;BME280;33517;49.866;8.320;2022-08-19T06:46:33;100182.16;;;25.93;58.23
12868;BME280;33517;49.866;8.320;2022-08-19T06:49:25;100174.59;;;26.00;57.27
12868;BME280;33517;49.866;8.320;2022-08-19T06:52:22;100171.91;;;26.15;56.85
12868;BME280;33517;49.866;8.320;2022-08-19T06:55:15;100180.91;;;26.74;55.70
12868;BME280;33517;49.866;8.320;2022-08-19T06:58:08;100184.81;;;27.56;53.32
12868;BME280;33517;49.866;8.320;2022-08-19T07:01:08;100180.25;;;30.42;46.90
12868;BME280;33517;49.866;8.320;2022-08-19T07:04:00;100188.06;;;31.25;45.11
12868;BME280;33517;49.866;8.320;2022-08-19T07:06:57;100188.75;;;32.97;42.71
12868;BME280;33517;49.866;8.320;2022-08-19T07:09:51;100189.28;;;33.59;38.93
12868;BME280;33517;49.866;8.320;2022-08-19T07:12:43;100190.22;;;33.63;38.84
12868;BME280;33517;49.866;8.320;2022-08-19T07:15:36;100190.75;;;33.57;39.72
12868;BME280;33517;49.866;8.320;2022-08-19T07:18:28;100186.34;;;33.98;38.28
12868;BME280;33517;49.866;8.320;2022-08-19T07:21:22;100185.81;;;34.89;37.17
12868;BME280;33517;49.866;8.320;2022-08-19T07:24:15;100180.06;;;35.11;35.42
12868;BME280;33517;49.866;8.320;2022-08-19T07:27:08;100173.59;;;34.86;36.05
12868;BME280;33517;49.866;8.320;2022-08-19T07:30:01;100175.78;;;33.28;37.57
12868;BME280;33517;49.866;8.320;2022-08-19T07:32:52;100175.47;;;33.64;37.82
12868;BME280;33517;49.866;8.320;2022-08-19T07:35:44;100183.13;;;34.51;37.08
12868;BME280;33517;49.866;8.320;2022-08-19T07:38:38;100183.31;;;33.91;37.62
12868;BME280;33517;49.866;8.320;2022-08-19T07:41:31;100182.66;;;34.41;37.09
12868;BME280;33517;49.866;8.320;2022-08-19T07:44:24;100177.50;;;34.10;37.37
12868;BME280;33517;49.866;8.320;2022-08-19T07:47:17;100183.81;;;33.59;37.52
12868;BME280;33517;49.866;8.320;2022-08-19T07:50:10;100176.94;;;34.25;37.01
12868;BME280;33517;49.866;8.320;2022-08-19T07:53:02;100180.91;;;35.03;35.94
12868;BME280;33517;49.866;8.320;2022-08-19T07:55:54;100188.00;;;35.98;34.36
12868;BME280;33517;49.866;8.320;2022-08-19T07:58:50;100183.72;;;36.34;34.22
12868;BME280;33517;49.866;8.320;2022-08-19T08:01:44;100190.75;;;37.19;33.70
12868;BME280;33517;49.866;8.320;2022-08-19T08:04:36;100185.53;;;37.81;32.69
12868;BME280;33517;49.866;8.320;2022-08-19T08:07:46;100184.75;;;37.81;31.35
12868;BME280;33517;49.866;8.320;2022-08-19T08:10:55;100198.09;;;38.57;30.64
12868;BME280;33517;49.866;8.320;2022-08-19T08:13:48;100200.88;;;38.41;30.22
12868;BME280;33517;49.866;8.320;2022-08-19T08:16:40;100187.75;;;38.66;29.95
12868;BME280;33517;49.866;8.320;2022-08-19T08:19:37;100196.09;;;36.76;30.96
12868;BME280;33517;49.866;8.320;2022-08-19T08:22:31;100207.63;;;36.57;30.92
12868;BME280;33517;49.866;8.320;2022-08-19T08:25:41;100198.00;;;37.12;30.46
12868;BME280;33517;49.866;8.320;2022-08-19T08:28:33;100203.22;;;37.68;30.18
12868;BME280;33517;49.866;8.320;2022-08-19T08:31:25;100205.63;;;35.56;32.73
12868;BME280;33517;49.866;8.320;2022-08-19T08:34:17;100197.34;;;37.42;30.53
12868;BME280;33517;49.866;8.320;2022-08-19T08:37:10;100199.13;;;36.26;31.39
12868;BME280;33517;49.866;8.320;2022-08-19T08:40:05;100199.97;;;36.63;31.49
12868;BME280;33517;49.866;8.320;2022-08-19T08:43:03;100199.28;;;37.81;29.28
12868;BME280;33517;49.866;8.320;2022-08-19T08:46:00;100202.63;;;38.81;28.64
12868;BME280;33517;49.866;8.320;2022-08-19T08:48:56;100205.84;;;39.36;27.77
12868;BME280;33517;49.866;8.320;2022-08-19T08:51:52;100215.72;;;41.15;26.58
12868;BME280;33517;49.866;8.320;2022-08-19T08:54:50;100203.09;;;41.77;24.39
12868;BME280;33517;49.866;8.320;2022-08-19T08:57:51;100202.44;;;41.90;25.79
12868;BME280;33517;49.866;8.320;2022-08-19T09:00:47;100206.13;;;42.01;25.09
12868;BME280;33517;49.866;8.320;2022-08-19T09:03:41;100212.41;;;42.89;24.45
12868;BME280;33517;49.866;8.320;2022-08-19T09:06:40;100207.78;;;42.50;24.57
12868;BME280;33517;49.866;8.320;2022-08-19T09:09:40;100202.50;;;38.93;27.51
12868;BME280;33517;49.866;8.320;2022-08-19T09:12:39;100202.88;;;35.56;30.86
12868;BME280;33517;49.866;8.320;2022-08-19T09:15:37;100197.13;;;36.59;31.03
12868;BME280;33517;49.866;8.320;2022-08-19T09:18:39;100194.69;;;39.68;27.53
12868;BME280;33517;49.866;8.320;2022-08-19T09:21:32;100184.19;;;39.35;27.36
12868;BME280;33517;49.866;8.320;2022-08-19T09:24:25;100185.31;;;39.15;27.02
12868;BME280;33517;49.866;8.320;2022-08-19T09:27:17;100199.56;;;40.87;25.74
12868;BME280;33517;49.866;8.320;2022-08-19T09:30:14;100185.50;;;41.25;25.34
12868;BME280;33517;49.866;8.320;2022-08-19T09:33:07;100194.97;;;41.94;24.72
12868;BME280;33517;49.866;8.320;2022-08-19T09:36:04;100189.25;;;42.57;23.63
12868;BME280;33517;49.866;8.320;2022-08-19T09:38:57;100189.31;;;42.68;23.13
12868;BME280;33517;49.866;8.320;2022-08-19T09:41:50;100176.53;;;41.69;24.04
12868;BME280;33517;49.866;8.320;2022-08-19T09:44:43;100184.38;;;42.00;24.22
12868;BME280;33517;49.866;8.320;2022-08-19T09:47:37;100193.47;;;42.95;23.32
12868;BME280;33517;49.866;8.320;2022-08-19T09:50:29;100193.06;;;41.02;24.50
12868;BME280;33517;49.866;8.320;2022-08-19T09:53:28;100193.06;;;41.28;24.32
12868;BME280;33517;49.866;8.320;2022-08-19T09:56:22;100185.59;;;41.66;23.65
12868;BME280;33517;49.866;8.320;2022-08-19T09:59:14;100171.91;;;42.17;23.96
12868;BME280;33517;49.866;8.320;2022-08-19T10:02:06;100173.94;;;39.16;26.39
12868;BME280;33517;49.866;8.320;2022-08-19T10:04:59;100175.06;;;41.15;24.79
12868;BME280;33517;49.866;8.320;2022-08-19T10:08:09;100176.84;;;42.41;22.79
12868;BME280;33517;49.866;8.320;2022-08-19T10:11:03;100176.09;;;43.05;22.77
12868;BME280;33517;49.866;8.320;2022-08-19T10:13:56;100167.97;;;43.40;22.98
12868;BME280;33517;49.866;8.320;2022-08-19T10:16:47;100164.38;;;42.13;23.46
12868;BME280;33517;49.866;8.320;2022-08-19T10:19:39;100167.72;;;39.58;25.84
12868;BME280;33517;49.866;8.320;2022-08-19T10:22:33;100172.66;;;39.48;25.87
12868;BME280;33517;49.866;8.320;2022-08-19T10:25:26;100164.78;;;40.83;23.85
12868;BME280;33517;49.866;8.320;2022-08-19T10:28:18;100170.50;;;41.60;23.32
12868;BME280;33517;49.866;8.320;2022-08-19T10:31:13;100166.03;;;42.76;22.07
12868;BME280;33517;49.866;8.320;2022-08-19T10:34:06;100167.06;;;42.03;22.24
12868;BME280;33517;49.866;8.320;2022-08-19T10:36:58;100169.25;;;42.31;21.26
12868;BME280;33517;49.866;8.320;2022-08-19T10:39:52;100175.00;;;42.08;21.23
12868;BME280;33517;49.866;8.320;2022-08-19T10:42:44;100168.78;;;42.22;22.12
12868;BME280;33517;49.866;8.320;2022-08-19T10:45:36;100166.22;;;43.08;21.10
12868;BME280;33517;49.866;8.320;2022-08-19T10:48:28;100172.59;;;41.37;22.47
12868;BME280;33517;49.866;8.320;2022-08-19T10:51:20;100169.84;;;41.70;22.10
12868;BME280;33517;49.866;8.320;2022-08-19T10:54:44;100157.59;;;41.34;23.02
12868;BME280;33517;49.866;8.320;2022-08-19T10:57:55;100176.81;;;42.37;22.01
12868;BME280;33517;49.866;8.320;2022-08-19T11:00:51;100156.63;;;40.41;22.39
12868;BME280;33517;49.866;8.320;2022-08-19T11:03:43;100150.44;;;40.02;23.31
12868;BME280;33517;49.866;8.320;2022-08-19T11:06:36;100145.81;;;41.74;22.66
12868;BME280;33517;49.866;8.320;2022-08-19T11:09:30;100142.63;;;42.12;21.71
12868;BME280;33517;49.866;8.320;2022-08-19T11:12:22;100145.81;;;41.74;22.73
12868;BME280;33517;49.866;8.320;2022-08-19T11:15:16;100140.13;;;42.00;22.38
12868;BME280;33517;49.866;8.320;2022-08-19T11:18:08;100125.34;;;41.82;22.06
12868;BME280;33517;49.866;8.320;2022-08-19T11:21:08;100123.22;;;42.59;21.03
12868;BME280;33517;49.866;8.320;2022-08-19T11:24:03;100129.31;;;42.89;21.32
12868;BME280;33517;49.866;8.320;2022-08-19T11:27:02;100122.81;;;43.40;21.10
12868;BME280;33517;49.866;8.320;2022-08-19T11:29:55;100116.94;;;41.71;22.25
12868;BME280;33517;49.866;8.320;2022-08-19T11:32:48;100109.53;;;41.82;20.56
12868;BME280;33517;49.866;8.320;2022-08-19T11:35:40;100111.22;;;39.48;23.33
12868;BME280;33517;49.866;8.320;2022-08-19T11:38:32;100111.72;;;40.96;22.54
12868;BME280;33517;49.866;8.320;2022-08-19T11:41:25;100099.84;;;40.66;21.40
12868;BME280;33517;49.866;8.320;2022-08-19T11:44:17;100094.81;;;41.01;21.75
12868;BME280;33517;49.866;8.320;2022-08-19T11:47:09;100097.44;;;42.48;20.97
12868;BME280;33517;49.866;8.320;2022-08-19T11:50:03;100087.28;;;42.66;19.70
12868;BME280;33517;49.866;8.320;2022-08-19T11:52:56;100080.34;;;41.88;20.90
12868;BME280;33517;49.866;8.320;2022-08-19T11:55:49;100082.72;;;42.34;20.75
12868;BME280;33517;49.866;8.320;2022-08-19T11:58:41;100086.06;;;44.20;19.96
12868;BME280;33517;49.866;8.320;2022-08-19T12:01:33;100084.47;;;43.91;19.40
12868;BME280;33517;49.866;8.320;2022-08-19T12:04:25;100075.38;;;43.73;20.04
12868;BME280;33517;49.866;8.320;2022-08-19T12:07:18;100076.75;;;41.07;20.45
12868;BME280;33517;49.866;8.320;2022-08-19T12:10:10;100086.84;;;39.27;22.40
12868;BME280;33517;49.866;8.320;2022-08-19T12:13:02;100086.13;;;37.64;23.98
12868;BME280;33517;49.866;8.320;2022-08-19T12:15:54;100084.31;;;39.61;22.71
12868;BME280;33517;49.866;8.320;2022-08-19T12:18:47;100070.72;;;40.16;22.22
12868;BME280;33517;49.866;8.320;2022-08-19T12:21:39;100071.41;;;40.62;21.37
12868;BME280;33517;49.866;8.320;2022-08-19T12:24:33;100068.38;;;41.70;21.11
12868;BME280;33517;49.866;8.320;2022-08-19T12:27:25;100073.34;;;42.49;20.91
12868;BME280;33517;49.866;8.320;2022-08-19T12:30:17;100073.38;;;43.84;19.23
12868;BME280;33517;49.866;8.320;2022-08-19T12:33:09;100078.22;;;42.80;19.33
12868;BME280;33517;49.866;8.320;2022-08-19T12:36:02;100076.69;;;41.74;20.21
12868;BME280;33517;49.866;8.320;2022-08-19T12:38:57;100066.44;;;42.93;19.29
12868;BME280;33517;49.866;8.320;2022-08-19T12:41:51;100069.00;;;40.87;20.31
12868;BME280;33517;49.866;8.320;2022-08-19T12:44:43;100058.63;;;38.42;22.93
12868;BME280;33517;49.866;8.320;2022-08-19T12:47:35;100060.44;;;39.07;22.67
12868;BME280;33517;49.866;8.320;2022-08-19T12:50:27;100076.94;;;40.10;22.79
12868;BME280;33517;49.866;8.320;2022-08-19T12:53:20;100060.97;;;38.24;23.57
12868;BME280;33517;49.866;8.320;2022-08-19T12:56:13;100065.78;;;37.80;23.95
12868;BME280;33517;49.866;8.320;2022-08-19T12:59:07;100063.47;;;39.40;22.68
12868;BME280;33517;49.866;8.320;2022-08-19T13:01:59;100059.16;;;39.20;22.83
12868;BME280;33517;49.866;8.320;2022-08-19T13:04:51;100048.56;;;37.68;23.85
12868;BME280;33517;49.866;8.320;2022-08-19T13:07:43;100061.84;;;36.19;24.89
12868;BME280;33517;49.866;8.320;2022-08-19T13:10:35;100054.66;;;35.13;26.21
12868;BME280;33517;49.866;8.320;2022-08-19T13:13:27;100064.91;;;34.25;27.76
12868;BME280;33517;49.866;8.320;2022-08-19T13:16:20;100058.94;;;33.39;27.98
12868;BME280;33517;49.866;8.320;2022-08-19T13:19:12;100056.09;;;32.84;28.18
12868;BME280;33517;49.866;8.320;2022-08-19T13:22:04;100059.09;;;32.66;28.37
12868;BME280;33517;49.866;8.320;2022-08-19T13:24:56;100068.91;;;32.84;28.84
12868;BME280;33517;49.866;8.320;2022-08-19T13:27:49;100069.69;;;33.27;28.15
12868;BME280;33517;49.866;8.320;2022-08-19T13:30:41;100080.06;;;33.76;28.11
12868;BME280;33517;49.866;8.320;2022-08-19T13:34:04;100073.41;;;33.94;27.82
12868;BME280;33517;49.866;8.320;2022-08-19T13:36:57;100072.94;;;34.01;27.36
12868;BME280;33517;49.866;8.320;2022-08-19T13:39:49;100073.22;;;33.99;27.30
12868;BME280;33517;49.866;8.320;2022-08-19T13:42:42;100077.00;;;34.24;27.46
12868;BME280;33517;49.866;8.320;2022-08-19T13:45:37;100072.13;;;34.29;26.98
12868;BME280;33517;49.866;8.320;2022-08-19T13:48:29;100066.59;;;34.47;27.13
12868;BME280;33517;49.866;8.320;2022-08-19T13:51:23;100062.44;;;34.32;25.73
12868;BME280;33517;49.866;8.320;2022-08-19T13:54:15;100062.19;;;33.87;26.55
12868;BME280;33517;49.866;8.320;2022-08-19T13:57:06;100068.28;;;33.84;27.10
12868;BME280;33517;49.866;8.320;2022-08-19T13:59:58;100084.59;;;33.38;26.96
12868;BME280;33517;49.866;8.320;2022-08-19T14:02:52;100088.34;;;33.16;27.05
12868;BME280;33517;49.866;8.320;2022-08-19T14:05:45;100080.75;;;33.30;26.46
12868;BME280;33517;49.866;8.320;2022-08-19T14:08:38;100088.00;;;33.43;26.30
12868;BME280;33517;49.866;8.320;2022-08-19T14:11:32;100072.28;;;33.49;25.97
12868;BME280;33517;49.866;8.320;2022-08-19T14:14:24;100076.63;;;33.16;26.40
12868;BME280;33517;49.866;8.320;2022-08-19T14:17:16;100073.56;;;33.26;26.25
12868;BME280;33517;49.866;8.320;2022-08-19T14:20:09;100073.25;;;33.02;26.47
12868;BME280;33517;49.866;8.320;2022-08-19T14:23:03;100088.66;;;33.15;27.94
12868;BME280;33517;49.866;8.320;2022-08-19T14:26:05;100081.25;;;33.24;27.99
12868;BME280;33517;49.866;8.320;2022-08-19T14:28:57;100074.81;;;33.45;27.46
12868;BME280;33517;49.866;8.320;2022-08-19T14:31:49;100075.31;;;33.30;26.47
12868;BME280;33517;49.866;8.320;2022-08-19T14:34:41;100068.94;;;33.01;25.56
12868;BME280;33517;49.866;8.320;2022-08-19T14:37:36;100058.25;;;32.48;26.45
12868;BME280;33517;49.866;8.320;2022-08-19T14:40:29;100051.50;;;32.28;27.78
12868;BME280;33517;49.866;8.320;2022-08-19T14:43:23;100051.31;;;32.25;27.39
12868;BME280;33517;49.866;8.320;2022-08-19T14:46:16;100047.66;;;32.38;27.31
12868;BME280;33517;49.866;8.320;2022-08-19T14:49:10;100036.44;;;32.39;28.30
12868;BME280;33517;49.866;8.320;2022-08-19T14:52:03;100027.34;;;32.44;28.81
12868;BME280;33517;49.866;8.320;2022-08-19T14:54:55;100025.41;;;32.79;28.66
12868;BME280;33517;49.866;8.320;2022-08-19T14:57:47;100018.06;;;32.96;28.29
12868;BME280;33517;49.866;8.320;2022-08-19T15:00:40;100017.28;;;32.96;28.43
12868;BME280;33517;49.866;8.320;2022-08-19T15:03:33;100010.38;;;32.90;28.34
12868;BME280;33517;49.866;8.320;2022-08-19T15:06:25;100006.34;;;32.79;28.50
12868;BME280;33517;49.866;8.320;2022-08-19T15:09:17;100010.38;;;32.55;29.03